Terminal Aerodrome Forecast
Issued by NWS

Home | Current Version | Previous Version | Text Only | Print | Product List | Glossary On
Versions: 1 2 3 4 5 6 7 8 9 10 11 12 13 14 15 16 17 18 19 20 21
000
FTUS43 KAPX 212300
TAFAPN
TAF
KAPN 212320Z 2200/2224 VRB03KT P6SM BKN040
     FM220900 00000KT 4SM BR BKN018
     FM221400 11006KT P6SM BKN030=

USA.gov is the U.S. government's official web portal to all federal, state and local government web resources and services.